createdAt,value
2015-10-22T00:00:12.662Z,-3.78
2015-10-22T00:00:25.912Z,-3.78
2015-10-22T00:00:39.117Z,-3.86
2015-10-22T00:00:52.351Z,-3.83
2015-10-22T00:01:05.586Z,-3.77
2015-10-22T00:01:18.773Z,-3.86
2015-10-22T00:01:31.976Z,-3.82
2015-10-22T00:01:45.179Z,-3.83
2015-10-22T00:01:58.383Z,-3.83
2015-10-22T00:02:11.586Z,-3.88
2015-10-22T00:02:24.789Z,-3.77
2015-10-22T00:02:38.008Z,-3.8
2015-10-22T00:02:51.244Z,-3.86
2015-10-22T00:03:04.478Z,-3.69
2015-10-22T00:03:17.728Z,-3.78
2015-10-22T00:03:30.994Z,-3.86
2015-10-22T00:03:44.199Z,-3.86
2015-10-22T00:03:57.418Z,-3.8
2015-10-22T00:04:10.605Z,-3.8
2015-10-22T00:04:23.808Z,-3.85
2015-10-22T00:04:36.996Z,-3.78
2015-10-22T00:04:50.216Z,-3.8
2015-10-22T00:05:03.434Z,-3.82
2015-10-22T00:05:16.669Z,-3.8
2015-10-22T00:05:29.919Z,-3.8
2015-10-22T00:05:43.141Z,-3.82
2015-10-22T00:05:56.344Z,-3.74
2015-10-22T00:06:09.547Z,-3.75
2015-10-22T00:06:22.750Z,-3.83
2015-10-22T00:06:35.937Z,-3.74
2015-10-22T00:06:49.142Z,-3.78
2015-10-22T00:07:02.360Z,-3.77
2015-10-22T00:07:15.563Z,-3.82
2015-10-22T00:07:28.657Z,-3.75
2015-10-22T00:07:41.907Z,-3.75
2015-10-22T00:07:55.112Z,-3.78
2015-10-22T00:08:08.315Z,-3.78
2015-10-22T00:08:21.519Z,-3.7
2015-10-22T00:08:34.722Z,-3.77
2015-10-22T00:08:47.927Z,-3.78
2015-10-22T00:09:01.177Z,-3.77
2015-10-22T00:09:14.380Z,-3.72
2015-10-22T00:09:27.599Z,-3.7
2015-10-22T00:09:40.833Z,-3.69
2015-10-22T00:09:54.054Z,-3.69
2015-10-22T00:10:07.257Z,-3.7
2015-10-22T00:10:20.460Z,-3.77
2015-10-22T00:10:33.663Z,-3.72
2015-10-22T00:10:46.869Z,-3.72
2015-10-22T00:11:00.072Z,-3.69
2015-10-22T00:11:13.276Z,-3.72
2015-10-22T00:11:26.479Z,-3.67
2015-10-22T00:11:39.697Z,-3.7
2015-10-22T00:11:52.934Z,-3.7
2015-10-22T00:12:06.184Z,-3.69
2015-10-22T00:12:19.434Z,-3.64
2015-10-22T00:12:32.637Z,-3.69
2015-10-22T00:12:45.843Z,-3.74
2015-10-22T00:12:59.046Z,-3.64
2015-10-22T00:13:12.249Z,-3.66
2015-10-22T00:13:25.452Z,-3.77
2015-10-22T00:13:38.656Z,-3.67
2015-10-22T00:13:51.876Z,-3.69
2015-10-22T00:14:05.095Z,-3.72
2015-10-22T00:14:18.345Z,-3.7
2015-10-22T00:14:31.533Z,-3.63
2015-10-22T00:14:44.736Z,-3.72
2015-10-22T00:14:57.926Z,-3.69
2015-10-22T00:15:11.129Z,-3.72
2015-10-22T00:15:24.348Z,-3.83
2015-10-22T00:15:37.567Z,-3.85
2015-10-22T00:15:50.820Z,-3.85
2015-10-22T00:16:03.914Z,-3.85
2015-10-22T00:16:17.148Z,-3.82
2015-10-22T00:16:30.351Z,-3.8
2015-10-22T00:16:43.554Z,-3.78
2015-10-22T00:16:56.759Z,-3.78
2015-10-22T00:17:09.962Z,-3.8
2015-10-22T00:17:23.150Z,-3.8
2015-10-22T00:17:36.369Z,-3.82
2015-10-22T00:17:49.590Z,-3.78
2015-10-22T00:18:02.825Z,-3.75
2015-10-22T00:18:16.075Z,-3.86
2015-10-22T00:18:29.325Z,-3.85
2015-10-22T00:18:42.528Z,-3.8
2015-10-22T00:18:55.734Z,-3.8
2015-10-22T00:19:08.937Z,-3.8
2015-10-22T00:19:22.156Z,-3.78
2015-10-22T00:19:35.359Z,-3.75
2015-10-22T00:19:48.562Z,-3.8
2015-10-22T00:20:01.768Z,-3.8
2015-10-22T00:20:14.987Z,-3.8
2015-10-22T00:20:28.206Z,-3.86
2015-10-22T00:20:41.425Z,-3.8
2015-10-22T00:20:54.630Z,-3.88
2015-10-22T00:21:07.833Z,-3.83
2015-10-22T00:21:21.036Z,-3.83
2015-10-22T00:21:34.255Z,-3.75
2015-10-22T00:21:47.458Z,-3.83
2015-10-22T00:22:00.680Z,-3.72
2015-10-22T00:22:13.883Z,-3.8
2015-10-22T00:22:27.117Z,-3.75
2015-10-22T00:22:40.351Z,-3.89
2015-10-22T00:22:53.620Z,-3.72
2015-10-22T00:23:06.808Z,-3.86
2015-10-22T00:23:20.011Z,-3.88
2015-10-22T00:23:33.214Z,-3.85
2015-10-22T00:23:46.417Z,-3.91
2015-10-22T00:23:59.638Z,-3.82
2015-10-22T00:24:12.856Z,-3.86
2015-10-22T00:24:26.091Z,-3.85
2015-10-22T00:24:39.310Z,-3.91
2015-10-22T00:24:52.497Z,-3.92
2015-10-22T00:25:05.703Z,-3.89
2015-10-22T00:25:18.906Z,-3.96
2015-10-22T00:25:32.094Z,-3.96
2015-10-22T00:25:45.313Z,-3.91
2015-10-22T00:25:58.534Z,-3.89
2015-10-22T00:26:11.784Z,-3.92
2015-10-22T00:26:24.987Z,-3.88
2015-10-22T00:26:38.191Z,-3.96
2015-10-22T00:26:51.394Z,-3.92
2015-10-22T00:27:04.599Z,-3.93
2015-10-22T00:27:17.818Z,-3.96
2015-10-22T00:27:30.880Z,-4.04
2015-10-22T00:27:44.161Z,-4.02
2015-10-22T00:27:57.414Z,-3.99
2015-10-22T00:28:10.602Z,-3.96
2015-10-22T00:28:23.805Z,-3.93
2015-10-22T00:28:37.024Z,-3.99
2015-10-22T00:28:50.227Z,-3.93
2015-10-22T00:29:03.433Z,-3.99
2015-10-22T00:29:16.620Z,-3.98
2015-10-22T00:29:29.699Z,-4.04
2015-10-22T00:29:42.917Z,-3.95
2015-10-22T00:29:56.152Z,-4.04
2015-10-22T00:30:09.405Z,-4.02
2015-10-22T00:30:22.608Z,-3.93
2015-10-22T00:30:35.811Z,-4.06
2015-10-22T00:30:49.014Z,-3.92
2015-10-22T00:31:02.220Z,-3.99
2015-10-22T00:31:15.423Z,-3.99
2015-10-22T00:31:28.626Z,-4.07
2015-10-22T00:31:41.845Z,-4.1
2015-10-22T00:31:55.064Z,-4.12
2015-10-22T00:32:08.285Z,-4.06
2015-10-22T00:32:21.503Z,-4.09
2015-10-22T00:32:34.722Z,-4.12
2015-10-22T00:32:47.910Z,-4.1
2015-10-22T00:33:01.116Z,-4.12
2015-10-22T00:33:14.335Z,-4.07
2015-10-22T00:33:27.553Z,-4.06
2015-10-22T00:33:40.788Z,-4.1
2015-10-22T00:33:54.022Z,-4.09
2015-10-22T00:34:07.259Z,-4.13
2015-10-22T00:34:20.463Z,-4.09
2015-10-22T00:34:33.666Z,-4.17
2015-10-22T00:34:46.869Z,-4.17
2015-10-22T00:35:00.088Z,-4.21
2015-10-22T00:35:13.278Z,-4.17
2015-10-22T00:35:26.497Z,-4.2
2015-10-22T00:35:39.716Z,-4.24
2015-10-22T00:35:52.934Z,-4.22
2015-10-22T00:36:06.171Z,-4.25
2015-10-22T00:36:19.436Z,-4.22
2015-10-22T00:36:32.483Z,-4.17
2015-10-22T00:36:45.671Z,-4.21
2015-10-22T00:36:58.874Z,-4.17
2015-10-22T00:37:12.080Z,-4.16
2015-10-22T00:37:25.299Z,-4.17
2015-10-22T00:37:38.502Z,-4.25
2015-10-22T00:37:51.721Z,-4.14
2015-10-22T00:38:04.926Z,-4.24
2015-10-22T00:38:18.019Z,-4.24
2015-10-22T00:38:31.254Z,-4.21
2015-10-22T00:38:44.457Z,-4.22
2015-10-22T00:38:57.660Z,-4.28
2015-10-22T00:39:10.851Z,-4.25
2015-10-22T00:39:24.069Z,-4.2
2015-10-22T00:39:37.335Z,-4.17
2015-10-22T00:39:50.569Z,-4.22
2015-10-22T00:40:03.788Z,-4.16
2015-10-22T00:40:16.994Z,-4.2
2015-10-22T00:40:30.197Z,-4.22
2015-10-22T00:40:43.400Z,-4.24
2015-10-22T00:40:56.604Z,-4.2
2015-10-22T00:41:09.809Z,-4.24
2015-10-22T00:41:22.871Z,-4.22
2015-10-22T00:41:35.965Z,-4.21
2015-10-22T00:41:49.059Z,-4.17
2015-10-22T00:42:02.262Z,-4.22
2015-10-22T00:42:15.469Z,-4.14
2015-10-22T00:42:28.688Z,-4.22
2015-10-22T00:42:41.891Z,-4.1
2015-10-22T00:42:55.094Z,-4.14
2015-10-22T00:43:08.283Z,-4.12
2015-10-22T00:43:21.502Z,-4.12
2015-10-22T00:43:34.721Z,-4.04
2015-10-22T00:43:47.940Z,-4.04
2015-10-22T00:44:01.190Z,-4.07
2015-10-22T00:44:14.458Z,-4.09
2015-10-22T00:44:27.693Z,-4.09
2015-10-22T00:44:40.896Z,-4.04
2015-10-22T00:44:54.115Z,-4.06
2015-10-22T00:45:07.302Z,-4.06
2015-10-22T00:45:20.508Z,-4.09
2015-10-22T00:45:33.711Z,-4.07
2015-10-22T00:45:46.946Z,-4.1
2015-10-22T00:46:00.164Z,-4.13
2015-10-22T00:46:13.401Z,-4.07
2015-10-22T00:46:26.635Z,-4.09
2015-10-22T00:46:39.854Z,-4.09
2015-10-22T00:46:53.057Z,-4.1
2015-10-22T00:47:06.276Z,-4.09
2015-10-22T00:47:19.466Z,-4.12
2015-10-22T00:47:32.685Z,-4.07
2015-10-22T00:47:45.904Z,-4.04
2015-10-22T00:47:59.154Z,-4.09
2015-10-22T00:48:12.407Z,-4.04
2015-10-22T00:48:25.641Z,-4.17
2015-10-22T00:48:38.891Z,-4.07
2015-10-22T00:48:52.094Z,-4.21
2015-10-22T00:49:05.297Z,-4.13
2015-10-22T00:49:18.347Z,-4.2
2015-10-22T00:49:31.535Z,-4.14
2015-10-22T00:49:44.738Z,-4.13
2015-10-22T00:49:57.941Z,-4.1
2015-10-22T00:50:11.175Z,-4.09
2015-10-22T00:50:24.412Z,-4.09
2015-10-22T00:50:37.677Z,-4.16
2015-10-22T00:50:50.881Z,-4.06
2015-10-22T00:51:04.084Z,-4.07
2015-10-22T00:51:17.290Z,-4.09
2015-10-22T00:51:30.493Z,-4.12
2015-10-22T00:51:43.696Z,-4.09
2015-10-22T00:51:56.884Z,-4.03
2015-10-22T00:52:10.102Z,-4.1
2015-10-22T00:52:23.323Z,-4.07
2015-10-22T00:52:36.557Z,-4.1
2015-10-22T00:52:49.776Z,-4.06
2015-10-22T00:53:02.979Z,-4.09
2015-10-22T00:53:16.202Z,-4.09
2015-10-22T00:53:29.405Z,-4.07
2015-10-22T00:53:42.608Z,-4.12
2015-10-22T00:53:55.811Z,-4.06
2015-10-22T00:54:09.030Z,-4.07
2015-10-22T00:54:22.235Z,-4.12
2015-10-22T00:54:35.470Z,-4.21
2015-10-22T00:54:48.720Z,-4.14
2015-10-22T00:55:01.954Z,-4.09
2015-10-22T00:55:15.157Z,-4.13
2015-10-22T00:55:28.348Z,-4.12
2015-10-22T00:55:41.566Z,-4.13
2015-10-22T00:55:54.770Z,-4.13
2015-10-22T00:56:07.973Z,-4.12
2015-10-22T00:56:21.163Z,-4.16
2015-10-22T00:56:34.366Z,-4.17
2015-10-22T00:56:47.429Z,-4.1
2015-10-22T00:57:00.679Z,-4.16
2015-10-22T00:57:13.913Z,-4.21
2015-10-22T00:57:27.165Z,-4.1
2015-10-22T00:57:40.400Z,-4.22
2015-10-22T00:57:53.587Z,-4.2
2015-10-22T00:58:06.790Z,-4.14
2015-10-22T00:58:19.981Z,-4.07
2015-10-22T00:58:33.184Z,-4.17
2015-10-22T00:58:46.387Z,-4.12
2015-10-22T00:58:59.590Z,-4.2
2015-10-22T00:59:12.809Z,-4.12
2015-10-22T00:59:26.031Z,-4.16
2015-10-22T00:59:39.265Z,-4.12
2015-10-22T00:59:52.484Z,-4.09
2015-10-22T01:00:05.687Z,-4.1
2015-10-22T01:00:18.874Z,-4.09
2015-10-22T01:00:32.049Z,-4.12
2015-10-22T01:00:45.252Z,-4.12
2015-10-22T01:00:58.455Z,-4.09
2015-10-22T01:01:11.705Z,-4.16
2015-10-22T01:01:24.957Z,-4.09
2015-10-22T01:01:38.196Z,-4.12
2015-10-22T01:01:51.399Z,-4.04
2015-10-22T01:02:04.602Z,-4.14
2015-10-22T01:02:17.805Z,-4.12
2015-10-22T01:02:31.027Z,-4.09
2015-10-22T01:02:44.246Z,-4.16
2015-10-22T01:02:57.496Z,-4.06
2015-10-22T01:03:10.699Z,-4.09
2015-10-22T01:03:23.888Z,-4.1
2015-10-22T01:03:37.091Z,-4.14
2015-10-22T01:03:50.294Z,-4.1
2015-10-22T01:04:03.513Z,-4.13
2015-10-22T01:04:16.732Z,-4.1
2015-10-22T01:04:29.970Z,-4.06
2015-10-22T01:04:43.189Z,-4.1
2015-10-22T01:04:56.377Z,-4.12
2015-10-22T01:05:09.595Z,-4.06
2015-10-22T01:05:22.783Z,-4.1
2015-10-22T01:05:36.004Z,-4.1
2015-10-22T01:05:49.254Z,-4.07
2015-10-22T01:06:02.504Z,-4.1
2015-10-22T01:06:15.738Z,-4.04
2015-10-22T01:06:28.974Z,-4.04
2015-10-22T01:06:42.193Z,-3.93
2015-10-22T01:06:55.396Z,-3.99
2015-10-22T01:07:08.615Z,-4.13
2015-10-22T01:07:21.818Z,-4.1
2015-10-22T01:07:35.025Z,-4.09
2015-10-22T01:07:48.213Z,-4.09
2015-10-22T01:08:01.431Z,-4.06
2015-10-22T01:08:14.650Z,-4.12
2015-10-22T01:08:27.887Z,-4.04
2015-10-22T01:08:41.137Z,-4.1
2015-10-22T01:08:54.371Z,-4.1
2015-10-22T01:09:07.574Z,-4.07
2015-10-22T01:09:20.762Z,-4.07
2015-10-22T01:09:33.983Z,-4.09
2015-10-22T01:09:47.030Z,-4.13
2015-10-22T01:10:00.233Z,-4.1
2015-10-22T01:10:13.421Z,-4.16
2015-10-22T01:10:26.640Z,-4.13
2015-10-22T01:10:39.861Z,-4.16
2015-10-22T01:10:53.111Z,-4.17
2015-10-22T01:11:06.361Z,-4.2
2015-10-22T01:11:19.549Z,-4.2
2015-10-22T01:11:32.786Z,-4.2
2015-10-22T01:11:45.989Z,-4.14
2015-10-22T01:11:59.192Z,-4.21
2015-10-22T01:12:12.396Z,-4.21
2015-10-22T01:12:25.599Z,-4.17
2015-10-22T01:12:38.804Z,-4.21
2015-10-22T01:12:52.023Z,-4.21
2015-10-22T01:13:05.304Z,-4.1
2015-10-22T01:13:18.538Z,-4.07
2015-10-22T01:13:31.776Z,-4.12
2015-10-22T01:13:44.979Z,-4.1
2015-10-22T01:13:58.182Z,-4.14
2015-10-22T01:14:11.385Z,-4.17
2015-10-22T01:14:24.572Z,-4.13
2015-10-22T01:14:37.809Z,-4.17
2015-10-22T01:14:51.028Z,-4.07
2015-10-22T01:15:04.262Z,-4.14
2015-10-22T01:15:17.449Z,-4.1
2015-10-22T01:15:30.653Z,-4.09
2015-10-22T01:15:43.859Z,-4.06
2015-10-22T01:15:57.046Z,-4.13
2015-10-22T01:16:10.281Z,-4.1
2015-10-22T01:16:23.484Z,-4.06
2015-10-22T01:16:36.721Z,-4.09
2015-10-22T01:16:49.955Z,-4.09
2015-10-22T01:17:03.237Z,-4.1
2015-10-22T01:17:16.424Z,-4.06
2015-10-22T01:17:29.627Z,-4.07
2015-10-22T01:17:42.832Z,-4.12
2015-10-22T01:17:56.036Z,-4.09
2015-10-22T01:18:09.223Z,-4.12
2015-10-22T01:18:22.411Z,-4.14
2015-10-22T01:18:35.632Z,-4.07
2015-10-22T01:18:48.851Z,-4.17
2015-10-22T01:19:02.085Z,-4.2
2015-10-22T01:19:15.335Z,-4.12
2015-10-22T01:19:28.539Z,-4.09
2015-10-22T01:19:41.745Z,-4.13
2015-10-22T01:19:54.948Z,-4.12
2015-10-22T01:20:08.167Z,-4.12
2015-10-22T01:20:21.370Z,-4.06
2015-10-22T01:20:34.573Z,-4.04
2015-10-22T01:20:47.779Z,-4.1
2015-10-22T01:21:00.998Z,-4.09
2015-10-22T01:21:14.232Z,-4.07
2015-10-22T01:21:27.435Z,-4.12
2015-10-22T01:21:40.657Z,-4.02
2015-10-22T01:21:53.860Z,-4.09
2015-10-22T01:22:07.048Z,-4.04
2015-10-22T01:22:20.282Z,-4.07
2015-10-22T01:22:33.485Z,-4.07
2015-10-22T01:22:46.721Z,-4.02
2015-10-22T01:22:59.987Z,-4.06
2015-10-22T01:23:13.175Z,-4.04
2015-10-22T01:23:26.378Z,-3.96
2015-10-22T01:23:39.584Z,-3.99
2015-10-22T01:23:52.787Z,-4.04
2015-10-22T01:24:05.974Z,-4.04
2015-10-22T01:24:19.178Z,-4.09
2015-10-22T01:24:32.396Z,-3.98
2015-10-22T01:24:45.618Z,-3.99
2015-10-22T01:24:58.868Z,-3.95
2015-10-22T01:25:12.102Z,-4.09
2015-10-22T01:25:25.321Z,-4.13
2015-10-22T01:25:38.526Z,-4.12
2015-10-22T01:25:51.729Z,-4.09
2015-10-22T01:26:04.933Z,-4.07
2015-10-22T01:26:18.136Z,-4.06
2015-10-22T01:26:31.339Z,-4.07
2015-10-22T01:26:44.545Z,-4.06
2015-10-22T01:26:57.764Z,-4.17
2015-10-22T01:27:11.029Z,-4.1
2015-10-22T01:27:24.295Z,-4.22
2015-10-22T01:27:37.482Z,-4.14
2015-10-22T01:27:50.689Z,-4.22
2015-10-22T01:28:03.892Z,-4.16
2015-10-22T01:28:17.110Z,-4.21
2015-10-22T01:28:30.314Z,-4.22
2015-10-22T01:28:43.519Z,-4.22
2015-10-22T01:28:56.737Z,-4.22
2015-10-22T01:29:09.972Z,-4.24
2015-10-22T01:29:23.175Z,-4.21
2015-10-22T01:29:36.472Z,-4.27
2015-10-22T01:29:49.678Z,-4.34
2015-10-22T01:30:02.881Z,-4.35
2015-10-22T01:30:16.084Z,-4.35
2015-10-22T01:30:29.303Z,-4.35
2015-10-22T01:30:42.540Z,-4.42
2015-10-22T01:30:55.775Z,-4.32
2015-10-22T01:31:09.040Z,-4.31
2015-10-22T01:31:22.243Z,-4.32
2015-10-22T01:31:35.431Z,-4.35
2015-10-22T01:31:48.637Z,-4.31
2015-10-22T01:32:01.825Z,-4.32
2015-10-22T01:32:15.043Z,-4.35
2015-10-22T01:32:28.246Z,-4.39
2015-10-22T01:32:41.467Z,-4.39
2015-10-22T01:32:54.686Z,-4.39
2015-10-22T01:33:07.920Z,-4.3
2015-10-22T01:33:21.155Z,-4.38
2015-10-22T01:33:34.358Z,-4.31
2015-10-22T01:33:47.564Z,-4.31
2015-10-22T01:34:00.767Z,-4.34
2015-10-22T01:34:13.970Z,-4.38
2015-10-22T01:34:27.173Z,-4.35
2015-10-22T01:34:40.376Z,-4.35
2015-10-22T01:34:53.598Z,-4.42
2015-10-22T01:35:06.833Z,-4.41
2015-10-22T01:35:20.083Z,-4.45
2015-10-22T01:35:33.301Z,-4.35
2015-10-22T01:35:46.491Z,-4.32
2015-10-22T01:35:59.678Z,-4.43
2015-10-22T01:36:12.881Z,-4.35
2015-10-22T01:36:26.069Z,-4.41
2015-10-22T01:36:39.256Z,-4.42
2015-10-22T01:36:52.447Z,-4.35
2015-10-22T01:37:05.650Z,-4.35
2015-10-22T01:37:18.869Z,-4.35
2015-10-22T01:37:32.088Z,-4.43
2015-10-22T01:37:45.184Z,-4.38
2015-10-22T01:37:58.419Z,-4.43
2015-10-22T01:38:11.622Z,-4.41
2015-10-22T01:38:24.825Z,-4.46
2015-10-22T01:38:38.044Z,-4.41
2015-10-22T01:38:51.109Z,-4.42
2015-10-22T01:39:04.312Z,-4.41
2015-10-22T01:39:17.515Z,-4.46
2015-10-22T01:39:30.734Z,-4.38
2015-10-22T01:39:43.969Z,-4.42
2015-10-22T01:39:57.221Z,-4.48
2015-10-22T01:40:10.439Z,-4.45
2015-10-22T01:40:23.642Z,-4.41
2015-10-22T01:40:36.846Z,-4.41
2015-10-22T01:40:50.052Z,-4.35
2015-10-22T01:41:03.270Z,-4.41
2015-10-22T01:41:16.458Z,-4.43
2015-10-22T01:41:29.677Z,-4.39
2015-10-22T01:41:42.880Z,-4.41
2015-10-22T01:41:56.132Z,-4.35
2015-10-22T01:42:09.366Z,-4.41
2015-10-22T01:42:22.569Z,-4.35
2015-10-22T01:42:35.757Z,-4.42
2015-10-22T01:42:48.964Z,-4.45
2015-10-22T01:43:02.167Z,-4.39
2015-10-22T01:43:15.355Z,-4.46
2015-10-22T01:43:28.558Z,-4.46
2015-10-22T01:43:41.792Z,-4.42
2015-10-22T01:43:54.997Z,-4.42
2015-10-22T01:44:08.232Z,-4.43
2015-10-22T01:44:21.435Z,-4.49
2015-10-22T01:44:34.638Z,-4.39
2015-10-22T01:44:47.841Z,-4.45
2015-10-22T01:45:01.047Z,-4.39
2015-10-22T01:45:14.250Z,-4.35
2015-10-22T01:45:27.469Z,-4.43
2015-10-22T01:45:40.703Z,-4.45
2015-10-22T01:45:53.941Z,-4.43
2015-10-22T01:46:07.175Z,-4.42
2015-10-22T01:46:20.363Z,-4.41
2015-10-22T01:46:33.566Z,-4.39
2015-10-22T01:46:46.769Z,-4.43
2015-10-22T01:46:59.974Z,-4.43
2015-10-22T01:47:13.161Z,-4.45
2015-10-22T01:47:26.380Z,-4.42
2015-10-22T01:47:39.630Z,-4.43
2015-10-22T01:47:52.852Z,-4.43
2015-10-22T01:48:06.071Z,-4.42
2015-10-22T01:48:19.274Z,-4.45
2015-10-22T01:48:32.493Z,-4.35
2015-10-22T01:48:45.696Z,-4.41
2015-10-22T01:48:58.917Z,-4.42
2015-10-22T01:49:12.136Z,-4.45
2015-10-22T01:49:25.339Z,-4.39
2015-10-22T01:49:38.621Z,-4.48
2015-10-22T01:49:51.839Z,-4.46
2015-10-22T01:50:05.045Z,-4.43
2015-10-22T01:50:18.249Z,-4.52
2015-10-22T01:50:31.436Z,-4.46
2015-10-22T01:50:44.639Z,-4.48
2015-10-22T01:50:57.844Z,-4.49
2015-10-22T01:51:11.032Z,-4.49
2015-10-22T01:51:24.251Z,-4.46
2015-10-22T01:51:37.469Z,-4.46
2015-10-22T01:51:50.688Z,-4.48
2015-10-22T01:52:03.894Z,-4.45
2015-10-22T01:52:17.082Z,-4.5
2015-10-22T01:52:30.285Z,-4.46
2015-10-22T01:52:43.504Z,-4.49
2015-10-22T01:52:56.724Z,-4.49
2015-10-22T01:53:09.974Z,-4.43
2015-10-22T01:53:23.209Z,-4.49
2015-10-22T01:53:36.459Z,-4.49
2015-10-22T01:53:49.677Z,-4.46
2015-10-22T01:54:02.884Z,-4.49
2015-10-22T01:54:16.071Z,-4.46
2015-10-22T01:54:29.274Z,-4.5
2015-10-22T01:54:42.462Z,-4.45
2015-10-22T01:54:55.680Z,-4.42
2015-10-22T01:55:08.918Z,-4.5
2015-10-22T01:55:22.152Z,-4.45
2015-10-22T01:55:35.230Z,-4.52
2015-10-22T01:55:48.465Z,-4.49
2015-10-22T01:56:01.671Z,-4.48
2015-10-22T01:56:14.874Z,-4.49
2015-10-22T01:56:28.061Z,-4.41
2015-10-22T01:56:41.311Z,-4.52
2015-10-22T01:56:54.499Z,-4.45
2015-10-22T01:57:07.704Z,-4.43
2015-10-22T01:57:20.923Z,-4.53
2015-10-22T01:57:34.142Z,-4.5
2015-10-22T01:57:47.392Z,-4.46
2015-10-22T01:58:00.645Z,-4.49
2015-10-22T01:58:13.895Z,-4.45
2015-10-22T01:58:27.113Z,-4.52
2015-10-22T01:58:40.301Z,-4.48
2015-10-22T01:58:53.493Z,-4.45
2015-10-22T01:59:06.715Z,-4.35
2015-10-22T01:59:19.934Z,-4.39
2015-10-22T01:59:33.137Z,-4.41
2015-10-22T01:59:46.356Z,-4.41
2015-10-22T01:59:59.574Z,-4.35
2015-10-22T02:00:12.812Z,-4.39
2015-10-22T02:00:26.030Z,-4.38
2015-10-22T02:00:39.234Z,-4.35
2015-10-22T02:00:52.437Z,-4.39
2015-10-22T02:01:05.642Z,-4.35
2015-10-22T02:01:18.861Z,-4.41
2015-10-22T02:01:32.048Z,-4.34
2015-10-22T02:01:45.251Z,-4.3
2015-10-22T02:01:58.470Z,-4.41
2015-10-22T02:02:11.707Z,-4.31
2015-10-22T02:02:24.926Z,-4.41
2015-10-22T02:02:38.129Z,-4.39
2015-10-22T02:02:51.332Z,-4.35
2015-10-22T02:03:04.538Z,-4.42
2015-10-22T02:03:17.742Z,-4.38
2015-10-22T02:03:30.960Z,-4.39
2015-10-22T02:03:44.210Z,-4.39
2015-10-22T02:03:57.460Z,-4.39
2015-10-22T02:04:10.698Z,-4.45
2015-10-22T02:04:23.948Z,-4.41
2015-10-22T02:04:37.151Z,-4.35
2015-10-22T02:04:50.354Z,-4.41
2015-10-22T02:05:03.557Z,-4.31
2015-10-22T02:05:16.763Z,-4.35
2015-10-22T02:05:29.982Z,-4.42
2015-10-22T02:05:43.216Z,-4.34
2015-10-22T02:05:56.466Z,-4.39
2015-10-22T02:06:09.687Z,-4.46
2015-10-22T02:06:22.890Z,-4.48
2015-10-22T02:06:36.093Z,-4.43
2015-10-22T02:06:49.296Z,-4.41
2015-10-22T02:07:02.500Z,-4.49
2015-10-22T02:07:15.706Z,-4.52
2015-10-22T02:07:28.924Z,-4.53
2015-10-22T02:07:42.128Z,-4.49
2015-10-22T02:07:55.362Z,-4.43
2015-10-22T02:08:08.598Z,-4.53
2015-10-22T02:08:21.833Z,-4.5
2015-10-22T02:08:35.036Z,-4.5
2015-10-22T02:08:48.239Z,-4.52
2015-10-22T02:09:01.442Z,-4.45
2015-10-22T02:09:14.633Z,-4.52
2015-10-22T02:09:27.836Z,-4.52
2015-10-22T02:09:41.039Z,-4.46
2015-10-22T02:09:54.258Z,-4.52
2015-10-22T02:10:07.523Z,-4.45
2015-10-22T02:10:20.745Z,-4.5
2015-10-22T02:10:33.932Z,-4.52
2015-10-22T02:10:47.151Z,-4.41
2015-10-22T02:11:00.354Z,-4.46
2015-10-22T02:11:13.560Z,-4.48
2015-10-22T02:11:26.764Z,-4.48
2015-10-22T02:11:39.982Z,-4.41
2015-10-22T02:11:53.217Z,-4.39
2015-10-22T02:12:06.451Z,-4.41
2015-10-22T02:12:19.672Z,-4.45
2015-10-22T02:12:32.875Z,-4.39
2015-10-22T02:12:46.078Z,-4.35
2015-10-22T02:12:59.266Z,-4.39
2015-10-22T02:13:12.472Z,-4.41
2015-10-22T02:13:25.659Z,-4.41
2015-10-22T02:13:38.878Z,-4.43
2015-10-22T02:13:52.097Z,-4.32
2015-10-22T02:14:05.331Z,-4.32
2015-10-22T02:14:18.584Z,-4.31
2015-10-22T02:14:31.772Z,-4.38
2015-10-22T02:14:44.990Z,-4.34
2015-10-22T02:14:58.178Z,-4.35
2015-10-22T02:15:11.397Z,-4.31
2015-10-22T02:15:24.603Z,-4.35
2015-10-22T02:15:37.806Z,-4.35
2015-10-22T02:15:51.025Z,-4.27
2015-10-22T02:16:04.259Z,-4.27
2015-10-22T02:16:17.512Z,-4.25
2015-10-22T02:16:30.762Z,-4.24
2015-10-22T02:16:43.949Z,-4.25
2015-10-22T02:16:57.153Z,-4.38
2015-10-22T02:17:10.356Z,-4.27
2015-10-22T02:17:23.561Z,-4.38
2015-10-22T02:17:36.764Z,-4.38
2015-10-22T02:17:49.983Z,-4.35
2015-10-22T02:18:03.201Z,-4.39
2015-10-22T02:18:16.422Z,-4.31
2015-10-22T02:18:29.657Z,-4.31
2015-10-22T02:18:42.891Z,-4.41
2015-10-22T02:18:55.985Z,-4.31
2015-10-22T02:19:09.188Z,-4.34
2015-10-22T02:19:22.442Z,-4.35
2015-10-22T02:19:35.629Z,-4.39
2015-10-22T02:19:48.832Z,-4.34
2015-10-22T02:20:02.036Z,-4.3
2015-10-22T02:20:15.239Z,-4.38
2015-10-22T02:20:28.475Z,-4.35
2015-10-22T02:20:41.694Z,-4.38
2015-10-22T02:20:54.928Z,-4.42
2015-10-22T02:21:08.194Z,-4.38
2015-10-22T02:21:21.400Z,-4.38
2015-10-22T02:21:34.603Z,-4.45
2015-10-22T02:21:47.791Z,-4.43
2015-10-22T02:22:00.994Z,-4.48
2015-10-22T02:22:14.197Z,-4.49
2015-10-22T02:22:27.387Z,-4.45
2015-10-22T02:22:40.622Z,-4.43
2015-10-22T02:22:53.856Z,-4.48
2015-10-22T02:23:07.090Z,-4.45
2015-10-22T02:23:20.296Z,-4.52
2015-10-22T02:23:33.499Z,-4.45
2015-10-22T02:23:46.702Z,-4.45
2015-10-22T02:23:59.905Z,-4.49
2015-10-22T02:24:13.124Z,-4.5
2015-10-22T02:24:26.346Z,-4.52
2015-10-22T02:24:39.581Z,-4.52
2015-10-22T02:24:52.831Z,-4.52
2015-10-22T02:25:06.034Z,-4.49
2015-10-22T02:25:19.237Z,-4.52
2015-10-22T02:25:32.286Z,-4.49
2015-10-22T02:25:45.505Z,-4.49
2015-10-22T02:25:58.708Z,-4.49
2015-10-22T02:26:11.927Z,-4.52
2015-10-22T02:26:25.022Z,-4.5
2015-10-22T02:26:38.272Z,-4.39
2015-10-22T02:26:51.475Z,-4.53
2015-10-22T02:27:04.694Z,-4.48
2015-10-22T02:27:17.897Z,-4.53
2015-10-22T02:27:31.104Z,-4.55
2015-10-22T02:27:44.308Z,-4.48
2015-10-22T02:27:57.526Z,-4.5
2015-10-22T02:28:10.729Z,-4.53
2015-10-22T02:28:23.950Z,-4.59
2015-10-22T02:28:37.200Z,-4.5
2015-10-22T02:28:50.435Z,-4.52
2015-10-22T02:29:03.638Z,-4.5
2015-10-22T02:29:16.841Z,-4.55
2015-10-22T02:29:30.031Z,-4.49
2015-10-22T02:29:43.234Z,-4.57
2015-10-22T02:29:56.422Z,-4.48
2015-10-22T02:30:09.641Z,-4.49
2015-10-22T02:30:22.844Z,-4.53
2015-10-22T02:30:36.080Z,-4.5
2015-10-22T02:30:49.315Z,-4.43
2015-10-22T02:31:02.549Z,-4.46
2015-10-22T02:31:15.783Z,-4.42
2015-10-22T02:31:28.989Z,-4.49
2015-10-22T02:31:42.177Z,-4.48
2015-10-22T02:31:55.224Z,-4.5
2015-10-22T02:32:08.411Z,-4.46
2015-10-22T02:32:21.614Z,-4.45
2015-10-22T02:32:34.821Z,-4.46
2015-10-22T02:32:48.039Z,-4.49
2015-10-22T02:33:01.289Z,-4.52
2015-10-22T02:33:14.539Z,-4.49
2015-10-22T02:33:27.729Z,-4.55
2015-10-22T02:33:40.932Z,-4.48
2015-10-22T02:33:54.135Z,-4.49
2015-10-22T02:34:07.354Z,-4.48
2015-10-22T02:34:20.573Z,-4.5
2015-10-22T02:34:33.794Z,-4.43
2015-10-22T02:34:47.029Z,-4.48
2015-10-22T02:35:00.232Z,-4.45
2015-10-22T02:35:13.435Z,-4.45
2015-10-22T02:35:26.638Z,-4.49
2015-10-22T02:35:39.829Z,-4.43
2015-10-22T02:35:53.047Z,-4.53
2015-10-22T02:36:06.266Z,-4.46
2015-10-22T02:36:19.500Z,-4.43
2015-10-22T02:36:32.738Z,-4.5
2015-10-22T02:36:45.941Z,-4.52
2015-10-22T02:36:59.160Z,-4.5
2015-10-22T02:37:12.347Z,-4.52
2015-10-22T02:37:25.566Z,-4.43
2015-10-22T02:37:38.756Z,-4.55
2015-10-22T02:37:51.960Z,-4.57
2015-10-22T02:38:05.178Z,-4.55
2015-10-22T02:38:18.397Z,-4.48
2015-10-22T02:38:31.665Z,-4.52
2015-10-22T02:38:44.899Z,-4.55
2015-10-22T02:38:58.149Z,-4.53
2015-10-22T02:39:11.337Z,-4.55
2015-10-22T02:39:24.540Z,-4.55
2015-10-22T02:39:37.746Z,-4.5
2015-10-22T02:39:50.933Z,-4.46
2015-10-22T02:40:04.136Z,-4.53
2015-10-22T02:40:17.371Z,-4.52
2015-10-22T02:40:30.574Z,-4.52
2015-10-22T02:40:43.810Z,-4.52
2015-10-22T02:40:57.060Z,-4.52
2015-10-22T02:41:10.295Z,-4.5
2015-10-22T02:41:23.513Z,-4.52
2015-10-22T02:41:36.720Z,-4.52
2015-10-22T02:41:49.923Z,-4.5
2015-10-22T02:42:02.376Z,-4.6
2015-10-22T02:42:15.579Z,-4.57
2015-10-22T02:42:28.782Z,-4.55
2015-10-22T02:42:41.988Z,-4.67
2015-10-22T02:42:55.207Z,-4.63
2015-10-22T02:43:08.426Z,-4.64
2015-10-22T02:43:21.676Z,-4.66
2015-10-22T02:43:34.912Z,-4.67
2015-10-22T02:43:48.146Z,-4.67
2015-10-22T02:44:01.350Z,-4.67
2015-10-22T02:44:14.553Z,-4.66
2015-10-22T02:44:27.756Z,-4.73
2015-10-22T02:44:40.963Z,-4.69
2015-10-22T02:44:54.166Z,-4.64
2015-10-22T02:45:07.354Z,-4.64
2015-10-22T02:45:20.572Z,-4.73
2015-10-22T02:45:33.791Z,-4.66
2015-10-22T02:45:47.043Z,-4.67
2015-10-22T02:46:00.293Z,-4.69
2015-10-22T02:46:13.496Z,-4.64
2015-10-22T02:46:26.684Z,-4.67
2015-10-22T02:46:39.874Z,-4.66
2015-10-22T02:46:53.077Z,-4.67
2015-10-22T02:47:06.296Z,-4.67
2015-10-22T02:47:19.484Z,-4.66
2015-10-22T02:47:32.718Z,-4.7
2015-10-22T02:47:45.923Z,-4.66
2015-10-22T02:47:59.173Z,-4.7
2015-10-22T02:48:12.407Z,-4.66
2015-10-22T02:48:25.626Z,-4.73
2015-10-22T02:48:38.832Z,-4.67
2015-10-22T02:48:52.035Z,-4.7
2015-10-22T02:49:05.223Z,-4.71
2015-10-22T02:49:18.426Z,-4.7
2015-10-22T02:49:31.598Z,-4.67
2015-10-22T02:49:44.804Z,-4.71
2015-10-22T02:49:57.992Z,-4.67
2015-10-22T02:50:11.226Z,-4.7
2015-10-22T02:50:24.476Z,-4.69
2015-10-22T02:50:37.682Z,-4.71
2015-10-22T02:50:50.885Z,-4.71